Portada
METAR-TAF:

METAR-TAF

Aeroports :

Rapid City Regional Airport

Rapid City, Dakota del Sud, Estats Units d'Amèrica

latitud: 44-02-44N, longitud: 103-03-14W, altitud: 976 m

Observació

L'informe es va fer fa 50 minuts, a les 10:52 UTC
Vent 17 kt del Nord/Nord-Oest
Temperatura 3°C
Humitat 48%
Pressió 1015 hPa
Visibilitat: 16.1 km
Cel clar

METAR: KRAP 231052Z AUTO 34017KT 10SM CLR 03/M07 A2997 RMK AO2 SLP159 T00281067 $

Hora: 04:42 (11:42 UTC)

Pronòstic

L'informe es va fer fa 22 minuts, a les 11:20 UTC
Pronòstic vàlid del 23 a les 12 UTC al 24 a les 12 UTC
Vent 15 kt del Nord/Nord-Oest
Visibilitat: 10 km
Cel clar
A partir de les 23 a les 1700 UTC
Vent 6 kt amb direcció variable
Visibilitat: 10 km
Núvols disperses a una alçada de 20000 ft
A partir de les 24 a les 0300 UTC
Vent 10 kt del Sud/Sud-Est
Visibilitat: 10 km
Núvols disperses a una alçada de 15000 ft

TAF: KRAP 231120Z 2312/2412 33015KT P6SM SKC FM231700 VRB06KT P6SM SCT200 FM240300 15010KT P6SM SCT150

Observacions i pronòstics meteorològics de més de 4000 aeroports (METAR i TAF).

Les estacions disponibles són els punts grocs i vermells al mapa.

Posi el ratolí al punt desitjat per veure el nom de l'estació.

Feu clic per veure les observacions i els pronòstics meteorològics.

Per canviar el mapa: feu clic els botons verds amb una creu de color negre per apropar; al botó verd amb un guió per allunyar la imatge; o en les fletxes verdes per a mapes adjacents.


METAR-TAF: